sensor_id;sensor_type;location;lat;lon;timestamp;P1;durP1;ratioP1;P2;durP2;ratioP2
34725;SDS011;20951;50.818;4.344;2022-09-09T00:04:35;6.70;;;1.65;;
34725;SDS011;20951;50.818;4.344;2022-09-09T00:07:10;8.82;;;1.90;;
34725;SDS011;20951;50.818;4.344;2022-09-09T00:10:03;4.50;;;1.40;;
34725;SDS011;20951;50.818;4.344;2022-09-09T00:15:12;5.22;;;1.58;;
34725;SDS011;20951;50.818;4.344;2022-09-09T00:20:42;6.22;;;1.60;;
34725;SDS011;20951;50.818;4.344;2022-09-09T00:23:28;4.72;;;1.80;;
34725;SDS011;20951;50.818;4.344;2022-09-09T00:25:58;7.38;;;1.73;;
34725;SDS011;20951;50.818;4.344;2022-09-09T00:28:36;8.27;;;1.90;;
34725;SDS011;20951;50.818;4.344;2022-09-09T00:31:26;6.78;;;1.80;;
34725;SDS011;20951;50.818;4.344;2022-09-09T00:33:55;7.97;;;1.48;;
34725;SDS011;20951;50.818;4.344;2022-09-09T00:36:30;5.28;;;1.67;;
34725;SDS011;20951;50.818;4.344;2022-09-09T00:39:00;5.72;;;1.70;;
34725;SDS011;20951;50.818;4.344;2022-09-09T00:52:23;5.57;;;1.30;;
34725;SDS011;20951;50.818;4.344;2022-09-09T00:57:43;6.13;;;1.48;;
34725;SDS011;20951;50.818;4.344;2022-09-09T01:00:22;6.70;;;1.60;;
34725;SDS011;20951;50.818;4.344;2022-09-09T01:09:07;5.85;;;1.55;;
34725;SDS011;20951;50.818;4.344;2022-09-09T01:14:30;5.50;;;1.40;;
34725;SDS011;20951;50.818;4.344;2022-09-09T01:17:07;6.47;;;1.45;;
34725;SDS011;20951;50.818;4.344;2022-09-09T01:22:15;7.97;;;1.80;;
34725;SDS011;20951;50.818;4.344;2022-09-09T01:27:48;9.77;;;2.30;;
34725;SDS011;20951;50.818;4.344;2022-09-09T01:30:17;7.43;;;2.00;;
34725;SDS011;20951;50.818;4.344;2022-09-09T01:35:37;9.20;;;2.20;;
34725;SDS011;20951;50.818;4.344;2022-09-09T01:38:21;7.32;;;2.10;;
34725;SDS011;20951;50.818;4.344;2022-09-09T01:40:47;12.50;;;2.45;;
34725;SDS011;20951;50.818;4.344;2022-09-09T01:43:24;10.48;;;2.63;;
34725;SDS011;20951;50.818;4.344;2022-09-09T01:45:52;8.25;;;2.38;;
34725;SDS011;20951;50.818;4.344;2022-09-09T01:48:28;9.10;;;1.95;;
34725;SDS011;20951;50.818;4.344;2022-09-09T01:50:55;9.73;;;2.30;;
34725;SDS011;20951;50.818;4.344;2022-09-09T01:53:24;12.82;;;2.85;;
34725;SDS011;20951;50.818;4.344;2022-09-09T01:58:36;6.55;;;1.90;;
34725;SDS011;20951;50.818;4.344;2022-09-09T02:01:38;11.23;;;2.50;;
34725;SDS011;20951;50.818;4.344;2022-09-09T02:06:47;9.02;;;2.38;;
34725;SDS011;20951;50.818;4.344;2022-09-09T02:09:14;8.05;;;2.47;;
34725;SDS011;20951;50.818;4.344;2022-09-09T02:11:43;12.45;;;2.47;;
34725;SDS011;20951;50.818;4.344;2022-09-09T02:14:18;11.10;;;2.75;;
34725;SDS011;20951;50.818;4.344;2022-09-09T02:17:09;10.65;;;2.13;;
34725;SDS011;20951;50.818;4.344;2022-09-09T02:19:51;11.65;;;2.65;;
34725;SDS011;20951;50.818;4.344;2022-09-09T02:22:43;9.88;;;2.55;;
34725;SDS011;20951;50.818;4.344;2022-09-09T02:25:15;11.77;;;2.20;;
34725;SDS011;20951;50.818;4.344;2022-09-09T02:27:45;11.07;;;3.28;;
34725;SDS011;20951;50.818;4.344;2022-09-09T02:30:13;9.52;;;2.85;;
34725;SDS011;20951;50.818;4.344;2022-09-09T02:32:40;14.02;;;2.80;;
34725;SDS011;20951;50.818;4.344;2022-09-09T02:35:17;11.32;;;2.75;;
34725;SDS011;20951;50.818;4.344;2022-09-09T02:40:11;15.77;;;2.78;;
34725;SDS011;20951;50.818;4.344;2022-09-09T02:42:47;11.93;;;2.83;;
34725;SDS011;20951;50.818;4.344;2022-09-09T02:45:18;12.80;;;2.53;;
34725;SDS011;20951;50.818;4.344;2022-09-09T02:50:43;13.48;;;2.97;;
34725;SDS011;20951;50.818;4.344;2022-09-09T02:53:21;13.27;;;2.65;;
34725;SDS011;20951;50.818;4.344;2022-09-09T02:58:29;10.93;;;2.70;;
34725;SDS011;20951;50.818;4.344;2022-09-09T03:01:04;9.85;;;2.40;;
34725;SDS011;20951;50.818;4.344;2022-09-09T03:03:30;8.32;;;2.50;;
34725;SDS011;20951;50.818;4.344;2022-09-09T03:06:07;12.00;;;2.38;;
34725;SDS011;20951;50.818;4.344;2022-09-09T03:08:41;12.18;;;2.22;;
34725;SDS011;20951;50.818;4.344;2022-09-09T03:11:09;7.85;;;2.17;;
34725;SDS011;20951;50.818;4.344;2022-09-09T03:13:35;11.52;;;2.80;;
34725;SDS011;20951;50.818;4.344;2022-09-09T03:16:02;13.38;;;2.55;;
34725;SDS011;20951;50.818;4.344;2022-09-09T03:18:31;11.48;;;2.80;;
34725;SDS011;20951;50.818;4.344;2022-09-09T03:20:57;12.15;;;2.97;;
34725;SDS011;20951;50.818;4.344;2022-09-09T03:23:32;12.45;;;2.60;;
34725;SDS011;20951;50.818;4.344;2022-09-09T03:26:07;13.13;;;2.85;;
34725;SDS011;20951;50.818;4.344;2022-09-09T03:28:35;14.40;;;2.67;;
34725;SDS011;20951;50.818;4.344;2022-09-09T03:31:02;10.95;;;2.60;;
34725;SDS011;20951;50.818;4.344;2022-09-09T03:33:29;11.90;;;2.60;;
34725;SDS011;20951;50.818;4.344;2022-09-09T03:36:04;12.18;;;2.97;;
34725;SDS011;20951;50.818;4.344;2022-09-09T03:38:30;11.55;;;2.65;;
34725;SDS011;20951;50.818;4.344;2022-09-09T03:40:57;12.13;;;2.70;;
34725;SDS011;20951;50.818;4.344;2022-09-09T03:43:24;8.98;;;2.58;;
34725;SDS011;20951;50.818;4.344;2022-09-09T03:45:53;11.10;;;2.53;;
34725;SDS011;20951;50.818;4.344;2022-09-09T03:48:21;9.15;;;2.50;;
34725;SDS011;20951;50.818;4.344;2022-09-09T03:50:51;14.02;;;2.70;;
34725;SDS011;20951;50.818;4.344;2022-09-09T03:53:28;11.90;;;2.90;;
34725;SDS011;20951;50.818;4.344;2022-09-09T03:55:57;10.60;;;2.50;;
34725;SDS011;20951;50.818;4.344;2022-09-09T03:58:25;11.38;;;2.72;;
34725;SDS011;20951;50.818;4.344;2022-09-09T04:00:55;11.45;;;2.60;;
34725;SDS011;20951;50.818;4.344;2022-09-09T04:03:22;15.23;;;3.30;;
34725;SDS011;20951;50.818;4.344;2022-09-09T04:05:51;9.43;;;2.80;;
34725;SDS011;20951;50.818;4.344;2022-09-09T04:08:21;10.10;;;2.42;;
34725;SDS011;20951;50.818;4.344;2022-09-09T04:10:47;10.90;;;2.80;;
34725;SDS011;20951;50.818;4.344;2022-09-09T04:13:23;13.65;;;3.13;;
34725;SDS011;20951;50.818;4.344;2022-09-09T04:15:53;13.07;;;2.63;;
34725;SDS011;20951;50.818;4.344;2022-09-09T04:18:20;12.93;;;2.80;;
34725;SDS011;20951;50.818;4.344;2022-09-09T04:20:47;15.13;;;3.33;;
34725;SDS011;20951;50.818;4.344;2022-09-09T04:23:17;14.05;;;3.03;;
34725;SDS011;20951;50.818;4.344;2022-09-09T04:25:47;14.88;;;2.97;;
34725;SDS011;20951;50.818;4.344;2022-09-09T04:28:15;14.45;;;3.03;;
34725;SDS011;20951;50.818;4.344;2022-09-09T04:30:49;11.55;;;2.40;;
34725;SDS011;20951;50.818;4.344;2022-09-09T04:33:18;12.05;;;2.95;;
34725;SDS011;20951;50.818;4.344;2022-09-09T04:35:51;11.23;;;3.25;;
34725;SDS011;20951;50.818;4.344;2022-09-09T04:38:18;11.50;;;2.83;;
34725;SDS011;20951;50.818;4.344;2022-09-09T04:40:48;13.65;;;3.50;;
34725;SDS011;20951;50.818;4.344;2022-09-09T04:43:16;16.13;;;3.30;;
34725;SDS011;20951;50.818;4.344;2022-09-09T04:45:46;15.93;;;3.28;;
34725;SDS011;20951;50.818;4.344;2022-09-09T04:48:13;12.65;;;2.90;;
34725;SDS011;20951;50.818;4.344;2022-09-09T04:50:39;12.88;;;2.92;;
34725;SDS011;20951;50.818;4.344;2022-09-09T04:53:15;14.13;;;3.35;;
34725;SDS011;20951;50.818;4.344;2022-09-09T04:55:47;15.73;;;3.72;;
34725;SDS011;20951;50.818;4.344;2022-09-09T04:58:13;12.40;;;3.08;;
34725;SDS011;20951;50.818;4.344;2022-09-09T05:00:40;15.82;;;3.95;;
34725;SDS011;20951;50.818;4.344;2022-09-09T05:03:07;21.15;;;3.47;;
34725;SDS011;20951;50.818;4.344;2022-09-09T05:05:44;11.30;;;3.08;;
34725;SDS011;20951;50.818;4.344;2022-09-09T05:08:12;13.13;;;3.20;;
34725;SDS011;20951;50.818;4.344;2022-09-09T05:10:46;15.07;;;3.85;;
34725;SDS011;20951;50.818;4.344;2022-09-09T05:13:13;12.55;;;3.55;;
34725;SDS011;20951;50.818;4.344;2022-09-09T05:15:42;15.98;;;3.63;;
34725;SDS011;20951;50.818;4.344;2022-09-09T05:18:18;18.67;;;3.83;;
34725;SDS011;20951;50.818;4.344;2022-09-09T05:20:46;17.98;;;3.67;;
34725;SDS011;20951;50.818;4.344;2022-09-09T05:23:16;15.48;;;3.08;;
34725;SDS011;20951;50.818;4.344;2022-09-09T05:25:42;14.85;;;3.13;;
34725;SDS011;20951;50.818;4.344;2022-09-09T05:28:08;12.52;;;3.25;;
34725;SDS011;20951;50.818;4.344;2022-09-09T05:30:35;13.52;;;3.30;;
34725;SDS011;20951;50.818;4.344;2022-09-09T05:33:03;15.85;;;3.17;;
34725;SDS011;20951;50.818;4.344;2022-09-09T05:35:31;13.85;;;3.40;;
34725;SDS011;20951;50.818;4.344;2022-09-09T05:38:05;14.13;;;3.38;;
34725;SDS011;20951;50.818;4.344;2022-09-09T05:40:34;10.95;;;3.00;;
34725;SDS011;20951;50.818;4.344;2022-09-09T05:43:00;13.25;;;3.55;;
34725;SDS011;20951;50.818;4.344;2022-09-09T05:45:29;15.27;;;3.53;;
34725;SDS011;20951;50.818;4.344;2022-09-09T05:47:54;11.93;;;3.20;;
34725;SDS011;20951;50.818;4.344;2022-09-09T05:50:20;13.73;;;3.08;;
34725;SDS011;20951;50.818;4.344;2022-09-09T05:52:46;13.25;;;3.42;;
34725;SDS011;20951;50.818;4.344;2022-09-09T05:55:13;12.60;;;3.20;;
34725;SDS011;20951;50.818;4.344;2022-09-09T05:57:40;17.17;;;3.90;;
34725;SDS011;20951;50.818;4.344;2022-09-09T06:00:07;13.40;;;2.90;;
34725;SDS011;20951;50.818;4.344;2022-09-09T06:02:34;14.20;;;3.03;;
34725;SDS011;20951;50.818;4.344;2022-09-09T06:05:02;16.30;;;3.20;;
34725;SDS011;20951;50.818;4.344;2022-09-09T06:07:27;14.13;;;2.72;;
34725;SDS011;20951;50.818;4.344;2022-09-09T06:09:56;14.07;;;3.15;;
34725;SDS011;20951;50.818;4.344;2022-09-09T06:12:25;10.77;;;2.55;;
34725;SDS011;20951;50.818;4.344;2022-09-09T06:14:50;14.70;;;3.10;;
34725;SDS011;20951;50.818;4.344;2022-09-09T06:17:16;10.85;;;2.53;;
34725;SDS011;20951;50.818;4.344;2022-09-09T06:19:55;11.90;;;2.63;;
34725;SDS011;20951;50.818;4.344;2022-09-09T06:22:20;9.77;;;2.60;;
34725;SDS011;20951;50.818;4.344;2022-09-09T06:24:49;13.65;;;3.03;;
34725;SDS011;20951;50.818;4.344;2022-09-09T06:27:17;14.65;;;3.03;;
34725;SDS011;20951;50.818;4.344;2022-09-09T06:29:46;12.20;;;2.55;;
34725;SDS011;20951;50.818;4.344;2022-09-09T06:32:20;15.48;;;3.10;;
34725;SDS011;20951;50.818;4.344;2022-09-09T06:34:46;11.80;;;2.70;;
34725;SDS011;20951;50.818;4.344;2022-09-09T06:37:14;12.27;;;3.00;;
34725;SDS011;20951;50.818;4.344;2022-09-09T06:39:49;12.07;;;2.85;;
34725;SDS011;20951;50.818;4.344;2022-09-09T06:42:17;11.52;;;2.78;;
34725;SDS011;20951;50.818;4.344;2022-09-09T06:44:43;13.93;;;2.78;;
34725;SDS011;20951;50.818;4.344;2022-09-09T06:47:11;12.18;;;3.08;;
34725;SDS011;20951;50.818;4.344;2022-09-09T06:49:37;11.85;;;2.80;;
34725;SDS011;20951;50.818;4.344;2022-09-09T06:52:05;13.15;;;2.75;;
34725;SDS011;20951;50.818;4.344;2022-09-09T06:54:33;12.25;;;2.83;;
34725;SDS011;20951;50.818;4.344;2022-09-09T06:57:02;9.95;;;2.47;;
34725;SDS011;20951;50.818;4.344;2022-09-09T06:59:37;11.88;;;2.53;;
34725;SDS011;20951;50.818;4.344;2022-09-09T07:02:05;10.85;;;2.42;;
34725;SDS011;20951;50.818;4.344;2022-09-09T07:04:32;15.07;;;2.88;;
34725;SDS011;20951;50.818;4.344;2022-09-09T07:06:58;10.55;;;2.42;;
34725;SDS011;20951;50.818;4.344;2022-09-09T07:09:24;10.68;;;2.47;;
34725;SDS011;20951;50.818;4.344;2022-09-09T07:11:54;12.77;;;2.67;;
34725;SDS011;20951;50.818;4.344;2022-09-09T07:14:23;11.10;;;2.20;;
34725;SDS011;20951;50.818;4.344;2022-09-09T07:16:52;13.07;;;2.60;;
34725;SDS011;20951;50.818;4.344;2022-09-09T07:19:17;12.60;;;2.38;;
34725;SDS011;20951;50.818;4.344;2022-09-09T07:21:43;10.15;;;2.72;;
34725;SDS011;20951;50.818;4.344;2022-09-09T07:24:10;9.60;;;2.40;;
34725;SDS011;20951;50.818;4.344;2022-09-09T07:26:37;9.60;;;2.60;;
34725;SDS011;20951;50.818;4.344;2022-09-09T07:29:06;11.95;;;2.63;;
34725;SDS011;20951;50.818;4.344;2022-09-09T07:31:34;9.85;;;2.47;;
34725;SDS011;20951;50.818;4.344;2022-09-09T07:34:01;13.75;;;2.88;;
34725;SDS011;20951;50.818;4.344;2022-09-09T07:36:33;10.68;;;2.65;;
34725;SDS011;20951;50.818;4.344;2022-09-09T07:39:02;8.98;;;2.25;;
34725;SDS011;20951;50.818;4.344;2022-09-09T07:41:40;10.32;;;3.15;;
34725;SDS011;20951;50.818;4.344;2022-09-09T07:44:08;13.85;;;3.20;;
34725;SDS011;20951;50.818;4.344;2022-09-09T07:46:36;12.32;;;3.05;;
34725;SDS011;20951;50.818;4.344;2022-09-09T07:49:04;8.90;;;2.83;;
34725;SDS011;20951;50.818;4.344;2022-09-09T07:51:34;14.40;;;3.28;;
34725;SDS011;20951;50.818;4.344;2022-09-09T07:54:04;10.07;;;2.30;;
34725;SDS011;20951;50.818;4.344;2022-09-09T07:56:32;13.65;;;3.13;;
34725;SDS011;20951;50.818;4.344;2022-09-09T07:59:02;10.07;;;3.20;;
34725;SDS011;20951;50.818;4.344;2022-09-09T08:01:32;12.88;;;3.40;;
34725;SDS011;20951;50.818;4.344;2022-09-09T08:04:05;10.15;;;2.35;;
34725;SDS011;20951;50.818;4.344;2022-09-09T08:06:48;12.00;;;2.85;;
34725;SDS011;20951;50.818;4.344;2022-09-09T08:09:17;12.30;;;2.53;;
34725;SDS011;20951;50.818;4.344;2022-09-09T08:11:54;9.07;;;2.40;;
34725;SDS011;20951;50.818;4.344;2022-09-09T08:14:25;12.95;;;2.47;;
34725;SDS011;20951;50.818;4.344;2022-09-09T08:16:51;11.60;;;2.78;;
34725;SDS011;20951;50.818;4.344;2022-09-09T08:19:18;10.60;;;2.75;;
34725;SDS011;20951;50.818;4.344;2022-09-09T08:21:44;12.98;;;2.67;;
34725;SDS011;20951;50.818;4.344;2022-09-09T08:24:11;10.00;;;2.00;;
34725;SDS011;20951;50.818;4.344;2022-09-09T08:26:40;13.32;;;2.80;;
34725;SDS011;20951;50.818;4.344;2022-09-09T08:29:09;9.23;;;2.45;;
34725;SDS011;20951;50.818;4.344;2022-09-09T08:31:40;14.13;;;2.85;;
34725;SDS011;20951;50.818;4.344;2022-09-09T08:34:17;11.82;;;2.63;;
34725;SDS011;20951;50.818;4.344;2022-09-09T08:36:47;12.68;;;2.78;;
34725;SDS011;20951;50.818;4.344;2022-09-09T08:39:15;11.05;;;2.83;;
34725;SDS011;20951;50.818;4.344;2022-09-09T08:50:16;10.38;;;3.00;;
34725;SDS011;20951;50.818;4.344;2022-09-09T08:53:05;12.40;;;3.08;;
34725;SDS011;20951;50.818;4.344;2022-09-09T08:55:49;8.82;;;2.85;;
34725;SDS011;20951;50.818;4.344;2022-09-09T08:58:23;11.00;;;3.10;;
34725;SDS011;20951;50.818;4.344;2022-09-09T09:01:02;14.60;;;3.20;;
34725;SDS011;20951;50.818;4.344;2022-09-09T09:03:48;9.43;;;2.85;;
34725;SDS011;20951;50.818;4.344;2022-09-09T09:11:51;11.27;;;2.97;;
34725;SDS011;20951;50.818;4.344;2022-09-09T09:14:31;11.20;;;3.30;;
34725;SDS011;20951;50.818;4.344;2022-09-09T09:16:59;10.85;;;3.00;;
34725;SDS011;20951;50.818;4.344;2022-09-09T09:19:32;12.77;;;3.50;;
34725;SDS011;20951;50.818;4.344;2022-09-09T09:24:35;14.10;;;3.63;;
34725;SDS011;20951;50.818;4.344;2022-09-09T09:27:16;13.52;;;3.83;;
34725;SDS011;20951;50.818;4.344;2022-09-09T09:29:56;16.47;;;3.67;;
34725;SDS011;20951;50.818;4.344;2022-09-09T09:32:33;12.55;;;3.47;;
34725;SDS011;20951;50.818;4.344;2022-09-09T09:35:12;11.77;;;3.60;;
34725;SDS011;20951;50.818;4.344;2022-09-09T09:37:43;13.18;;;3.15;;
34725;SDS011;20951;50.818;4.344;2022-09-09T09:40:14;10.82;;;3.40;;
34725;SDS011;20951;50.818;4.344;2022-09-09T09:42:51;12.25;;;3.40;;
34725;SDS011;20951;50.818;4.344;2022-09-09T09:45:42;11.13;;;2.97;;
34725;SDS011;20951;50.818;4.344;2022-09-09T09:48:13;11.10;;;3.55;;
34725;SDS011;20951;50.818;4.344;2022-09-09T09:50:55;12.35;;;3.33;;
34725;SDS011;20951;50.818;4.344;2022-09-09T09:53:31;11.43;;;3.40;;
34725;SDS011;20951;50.818;4.344;2022-09-09T09:56:05;11.00;;;3.08;;
34725;SDS011;20951;50.818;4.344;2022-09-09T10:06:45;9.20;;;2.95;;
34725;SDS011;20951;50.818;4.344;2022-09-09T10:09:25;12.00;;;3.28;;
34725;SDS011;20951;50.818;4.344;2022-09-09T10:14:24;11.32;;;3.10;;
34725;SDS011;20951;50.818;4.344;2022-09-09T10:17:19;10.95;;;3.00;;
34725;SDS011;20951;50.818;4.344;2022-09-09T10:22:35;12.40;;;3.05;;
34725;SDS011;20951;50.818;4.344;2022-09-09T10:35:29;10.07;;;2.67;;
34725;SDS011;20951;50.818;4.344;2022-09-09T10:38:14;9.80;;;2.63;;
34725;SDS011;20951;50.818;4.344;2022-09-09T10:48:32;11.68;;;2.75;;
34725;SDS011;20951;50.818;4.344;2022-09-09T10:51:17;10.40;;;2.90;;
34725;SDS011;20951;50.818;4.344;2022-09-09T10:54:03;10.82;;;3.17;;
34725;SDS011;20951;50.818;4.344;2022-09-09T10:57:04;8.68;;;2.47;;
34725;SDS011;20951;50.818;4.344;2022-09-09T10:59:40;11.38;;;2.90;;
34725;SDS011;20951;50.818;4.344;2022-09-09T11:02:13;10.23;;;2.92;;
34725;SDS011;20951;50.818;4.344;2022-09-09T11:09:59;10.85;;;2.42;;
34725;SDS011;20951;50.818;4.344;2022-09-09T11:12:28;7.88;;;2.03;;
34725;SDS011;20951;50.818;4.344;2022-09-09T11:15:12;8.93;;;2.10;;
34725;SDS011;20951;50.818;4.344;2022-09-09T11:17:46;7.70;;;1.80;;
34725;SDS011;20951;50.818;4.344;2022-09-09T11:20:19;8.85;;;2.40;;
34725;SDS011;20951;50.818;4.344;2022-09-09T11:22:49;12.13;;;2.20;;
34725;SDS011;20951;50.818;4.344;2022-09-09T11:25:37;10.35;;;2.38;;
34725;SDS011;20951;50.818;4.344;2022-09-09T11:38:47;9.23;;;2.40;;
34725;SDS011;20951;50.818;4.344;2022-09-09T11:41:20;9.32;;;2.10;;
34725;SDS011;20951;50.818;4.344;2022-09-09T11:43:54;30.20;;;23.45;;
34725;SDS011;20951;50.818;4.344;2022-09-09T11:46:34;10.40;;;3.23;;
34725;SDS011;20951;50.818;4.344;2022-09-09T11:49:04;7.88;;;2.30;;
34725;SDS011;20951;50.818;4.344;2022-09-09T11:51:38;6.97;;;1.90;;
34725;SDS011;20951;50.818;4.344;2022-09-09T11:57:04;6.80;;;1.95;;
34725;SDS011;20951;50.818;4.344;2022-09-09T11:59:49;9.52;;;3.63;;
34725;SDS011;20951;50.818;4.344;2022-09-09T12:02:25;10.15;;;3.22;;
34725;SDS011;20951;50.818;4.344;2022-09-09T12:05:10;9.02;;;2.15;;
34725;SDS011;20951;50.818;4.344;2022-09-09T12:07:52;7.47;;;2.00;;
34725;SDS011;20951;50.818;4.344;2022-09-09T12:10:29;9.48;;;2.60;;
34725;SDS011;20951;50.818;4.344;2022-09-09T12:15:49;10.23;;;3.67;;
34725;SDS011;20951;50.818;4.344;2022-09-09T12:18:38;9.07;;;3.35;;
34725;SDS011;20951;50.818;4.344;2022-09-09T12:24:34;9.23;;;2.38;;
34725;SDS011;20951;50.818;4.344;2022-09-09T12:27:12;7.38;;;2.05;;
34725;SDS011;20951;50.818;4.344;2022-09-09T12:30:02;11.80;;;2.00;;
34725;SDS011;20951;50.818;4.344;2022-09-09T12:32:46;9.75;;;2.08;;
34725;SDS011;20951;50.818;4.344;2022-09-09T12:40:26;7.90;;;2.00;;
34725;SDS011;20951;50.818;4.344;2022-09-09T12:43:00;8.68;;;2.30;;
34725;SDS011;20951;50.818;4.344;2022-09-09T12:45:27;7.28;;;1.90;;
34725;SDS011;20951;50.818;4.344;2022-09-09T12:50:34;7.90;;;1.80;;
34725;SDS011;20951;50.818;4.344;2022-09-09T12:55:59;5.32;;;1.50;;
34725;SDS011;20951;50.818;4.344;2022-09-09T12:58:33;6.55;;;1.55;;
34725;SDS011;20951;50.818;4.344;2022-09-09T13:01:01;6.13;;;1.55;;
34725;SDS011;20951;50.818;4.344;2022-09-09T13:03:30;11.52;;;4.82;;
34725;SDS011;20951;50.818;4.344;2022-09-09T13:06:39;6.05;;;1.70;;
34725;SDS011;20951;50.818;4.344;2022-09-09T13:08:50;6.57;;;1.40;;
34725;SDS011;20951;50.818;4.344;2022-09-09T13:11:20;7.30;;;1.55;;
34725;SDS011;20951;50.818;4.344;2022-09-09T13:13:54;6.40;;;1.73;;
34725;SDS011;20951;50.818;4.344;2022-09-09T13:18:49;8.23;;;1.98;;
34725;SDS011;20951;50.818;4.344;2022-09-09T13:21:17;5.10;;;1.60;;
34725;SDS011;20951;50.818;4.344;2022-09-09T13:23:47;5.35;;;1.77;;
34725;SDS011;20951;50.818;4.344;2022-09-09T13:26:22;6.25;;;1.70;;
34725;SDS011;20951;50.818;4.344;2022-09-09T13:28:53;6.80;;;1.77;;
34725;SDS011;20951;50.818;4.344;2022-09-09T13:31:24;4.93;;;1.40;;
34725;SDS011;20951;50.818;4.344;2022-09-09T13:33:54;4.03;;;1.10;;
34725;SDS011;20951;50.818;4.344;2022-09-09T13:36:29;5.35;;;1.30;;
34725;SDS011;20951;50.818;4.344;2022-09-09T13:38:57;5.53;;;1.40;;
34725;SDS011;20951;50.818;4.344;2022-09-09T13:41:34;4.68;;;1.50;;
34725;SDS011;20951;50.818;4.344;2022-09-09T13:49:44;4.07;;;1.30;;
34725;SDS011;20951;50.818;4.344;2022-09-09T13:52:17;5.43;;;1.60;;
34725;SDS011;20951;50.818;4.344;2022-09-09T13:54:50;6.77;;;1.47;;
34725;SDS011;20951;50.818;4.344;2022-09-09T13:57:24;4.18;;;1.25;;
34725;SDS011;20951;50.818;4.344;2022-09-09T13:59:51;4.10;;;1.45;;
34725;SDS011;20951;50.818;4.344;2022-09-09T14:02:19;6.13;;;1.40;;
34725;SDS011;20951;50.818;4.344;2022-09-09T14:04:47;3.95;;;1.30;;
34725;SDS011;20951;50.818;4.344;2022-09-09T14:07:16;5.85;;;1.50;;
34725;SDS011;20951;50.818;4.344;2022-09-09T14:09:43;13.30;;;11.00;;
34725;SDS011;20951;50.818;4.344;2022-09-09T14:12:16;6.40;;;1.50;;
34725;SDS011;20951;50.818;4.344;2022-09-09T14:14:43;6.97;;;1.65;;
34725;SDS011;20951;50.818;4.344;2022-09-09T14:17:12;8.00;;;1.80;;
34725;SDS011;20951;50.818;4.344;2022-09-09T14:19:40;5.28;;;1.33;;
34725;SDS011;20951;50.818;4.344;2022-09-09T14:22:07;4.40;;;1.50;;
34725;SDS011;20951;50.818;4.344;2022-09-09T14:24:35;6.88;;;1.80;;
34725;SDS011;20951;50.818;4.344;2022-09-09T14:27:01;5.15;;;1.67;;
34725;SDS011;20951;50.818;4.344;2022-09-09T14:29:27;6.93;;;1.63;;
34725;SDS011;20951;50.818;4.344;2022-09-09T14:31:53;4.60;;;1.63;;
34725;SDS011;20951;50.818;4.344;2022-09-09T14:34:19;5.60;;;1.50;;
34725;SDS011;20951;50.818;4.344;2022-09-09T14:36:45;7.82;;;1.75;;
34725;SDS011;20951;50.818;4.344;2022-09-09T14:39:11;6.32;;;1.58;;
34725;SDS011;20951;50.818;4.344;2022-09-09T14:41:37;5.57;;;2.00;;
34725;SDS011;20951;50.818;4.344;2022-09-09T14:44:06;5.07;;;1.30;;
34725;SDS011;20951;50.818;4.344;2022-09-09T14:46:31;7.05;;;1.98;;
34725;SDS011;20951;50.818;4.344;2022-09-09T14:48:58;6.22;;;1.40;;
34725;SDS011;20951;50.818;4.344;2022-09-09T14:51:24;8.20;;;1.80;;
34725;SDS011;20951;50.818;4.344;2022-09-09T14:53:54;7.65;;;1.52;;
34725;SDS011;20951;50.818;4.344;2022-09-09T14:56:22;6.05;;;1.50;;
34725;SDS011;20951;50.818;4.344;2022-09-09T14:58:53;5.70;;;1.25;;
34725;SDS011;20951;50.818;4.344;2022-09-09T15:01:20;6.63;;;1.45;;
34725;SDS011;20951;50.818;4.344;2022-09-09T15:04:00;6.00;;;1.83;;
34725;SDS011;20951;50.818;4.344;2022-09-09T15:06:31;6.18;;;1.60;;
34725;SDS011;20951;50.818;4.344;2022-09-09T15:09:07;5.97;;;1.58;;
34725;SDS011;20951;50.818;4.344;2022-09-09T15:11:47;4.88;;;1.40;;
34725;SDS011;20951;50.818;4.344;2022-09-09T15:14:13;5.57;;;1.27;;
34725;SDS011;20951;50.818;4.344;2022-09-09T15:16:39;6.43;;;1.30;;
34725;SDS011;20951;50.818;4.344;2022-09-09T15:19:06;6.40;;;1.45;;
34725;SDS011;20951;50.818;4.344;2022-09-09T15:21:33;6.70;;;1.55;;
34725;SDS011;20951;50.818;4.344;2022-09-09T15:24:00;4.13;;;1.55;;
34725;SDS011;20951;50.818;4.344;2022-09-09T15:26:26;8.60;;;1.52;;
34725;SDS011;20951;50.818;4.344;2022-09-09T15:28:52;7.22;;;1.80;;
34725;SDS011;20951;50.818;4.344;2022-09-09T15:31:22;6.07;;;1.50;;
34725;SDS011;20951;50.818;4.344;2022-09-09T15:36:36;7.13;;;2.60;;
34725;SDS011;20951;50.818;4.344;2022-09-09T15:39:06;5.70;;;1.50;;
34725;SDS011;20951;50.818;4.344;2022-09-09T15:41:34;6.80;;;1.90;;
34725;SDS011;20951;50.818;4.344;2022-09-09T15:44:00;7.22;;;2.08;;
34725;SDS011;20951;50.818;4.344;2022-09-09T15:46:31;6.38;;;1.70;;
34725;SDS011;20951;50.818;4.344;2022-09-09T15:49:09;5.60;;;1.45;;
34725;SDS011;20951;50.818;4.344;2022-09-09T15:51:40;5.90;;;2.03;;
34725;SDS011;20951;50.818;4.344;2022-09-09T15:54:11;6.15;;;1.52;;
34725;SDS011;20951;50.818;4.344;2022-09-09T15:56:38;7.85;;;1.75;;
34725;SDS011;20951;50.818;4.344;2022-09-09T15:59:04;10.30;;;1.85;;
34725;SDS011;20951;50.818;4.344;2022-09-09T16:01:30;6.60;;;1.73;;
34725;SDS011;20951;50.818;4.344;2022-09-09T16:03:57;6.32;;;1.73;;
34725;SDS011;20951;50.818;4.344;2022-09-09T16:06:24;5.25;;;1.60;;
34725;SDS011;20951;50.818;4.344;2022-09-09T16:08:53;5.63;;;1.58;;
34725;SDS011;20951;50.818;4.344;2022-09-09T16:11:21;7.90;;;1.80;;
34725;SDS011;20951;50.818;4.344;2022-09-09T16:13:49;5.40;;;1.75;;
34725;SDS011;20951;50.818;4.344;2022-09-09T16:16:17;8.65;;;2.65;;
34725;SDS011;20951;50.818;4.344;2022-09-09T16:18:47;8.43;;;2.17;;
34725;SDS011;20951;50.818;4.344;2022-09-09T16:21:21;5.75;;;2.00;;
34725;SDS011;20951;50.818;4.344;2022-09-09T16:23:54;8.90;;;2.40;;
34725;SDS011;20951;50.818;4.344;2022-09-09T16:26:21;8.88;;;2.90;;
34725;SDS011;20951;50.818;4.344;2022-09-09T16:28:48;10.70;;;3.00;;
34725;SDS011;20951;50.818;4.344;2022-09-09T16:31:15;6.32;;;1.80;;
34725;SDS011;20951;50.818;4.344;2022-09-09T16:33:43;6.95;;;1.83;;
34725;SDS011;20951;50.818;4.344;2022-09-09T16:36:10;5.40;;;1.85;;
34725;SDS011;20951;50.818;4.344;2022-09-09T16:38:39;7.70;;;2.00;;
34725;SDS011;20951;50.818;4.344;2022-09-09T16:41:09;7.72;;;2.00;;
34725;SDS011;20951;50.818;4.344;2022-09-09T16:43:39;5.13;;;1.90;;
34725;SDS011;20951;50.818;4.344;2022-09-09T16:46:16;6.35;;;2.40;;
34725;SDS011;20951;50.818;4.344;2022-09-09T16:48:46;6.88;;;2.28;;
34725;SDS011;20951;50.818;4.344;2022-09-09T16:51:14;7.50;;;2.60;;
34725;SDS011;20951;50.818;4.344;2022-09-09T16:53:51;5.65;;;2.30;;
34725;SDS011;20951;50.818;4.344;2022-09-09T16:56:18;9.10;;;2.40;;
34725;SDS011;20951;50.818;4.344;2022-09-09T16:58:51;7.40;;;2.38;;
34725;SDS011;20951;50.818;4.344;2022-09-09T17:01:21;9.68;;;2.90;;
34725;SDS011;20951;50.818;4.344;2022-09-09T17:03:54;5.82;;;2.40;;
34725;SDS011;20951;50.818;4.344;2022-09-09T17:06:20;9.45;;;2.63;;
34725;SDS011;20951;50.818;4.344;2022-09-09T17:08:47;7.90;;;2.35;;
34725;SDS011;20951;50.818;4.344;2022-09-09T17:11:17;8.48;;;2.40;;
34725;SDS011;20951;50.818;4.344;2022-09-09T17:13:54;4.70;;;2.00;;
34725;SDS011;20951;50.818;4.344;2022-09-09T17:16:23;5.80;;;2.28;;
34725;SDS011;20951;50.818;4.344;2022-09-09T17:18:52;7.10;;;2.22;;
34725;SDS011;20951;50.818;4.344;2022-09-09T17:21:20;7.95;;;2.20;;
34725;SDS011;20951;50.818;4.344;2022-09-09T17:23:50;9.50;;;1.65;;
34725;SDS011;20951;50.818;4.344;2022-09-09T17:26:17;7.10;;;1.60;;
34725;SDS011;20951;50.818;4.344;2022-09-09T17:28:47;7.28;;;2.20;;
34725;SDS011;20951;50.818;4.344;2022-09-09T17:31:14;9.65;;;1.80;;
34725;SDS011;20951;50.818;4.344;2022-09-09T17:33:45;9.93;;;1.90;;